Time;durP1;ratioP1;P1;durP2;ratioP2;P2;SDS_P1;SDS_P2;PMS_P1;PMS_P2;Temp;Humidity;BMP_temperature;BMP_pressure;BME280_temperature;BME280_humidity;BME280_pressure;Samples;Min_cycle;Max_cycle;Signal;HPM_P1;HPM_P2
2022/02/05 00:00:44;;;;;;;783.40;347.40;;;;;;;;;;4948048;28;20046;-76
2022/02/05 00:05:52;;;;;;;783.30;351.13;;;;;;;;;;4950833;28;20133;-77
2022/02/05 00:15:52;;;;;;;782.40;343.17;;;;;;;;;;4947954;28;20134;-77
2022/02/05 00:40:45;;;;;;;787.10;348.98;;;;;;;;;;4951290;28;20585;-77
2022/02/05 00:43:04;;;;;;;786.92;345.02;;;;;;;;;;4950638;28;20027;-77
2022/02/05 00:45:34;;;;;;;786.75;349.98;;;;;;;;;;4960159;28;20486;-77
2022/02/05 00:48:02;;;;;;;787.67;352.13;;;;;;;;;;4954086;28;20127;-77
2022/02/05 00:50:30;;;;;;;785.83;347.60;;;;;;;;;;4945164;28;20059;-76
2022/02/05 00:53:04;;;;;;;785.58;348.02;;;;;;;;;;4949479;28;20134;-77
2022/02/05 00:55:34;;;;;;;785.38;349.63;;;;;;;;;;4963286;28;20087;-77
2022/02/05 00:58:03;;;;;;;786.17;346.33;;;;;;;;;;4947714;28;20133;-77
2022/02/05 01:00:30;;;;;;;788.20;353.73;;;;;;;;;;4951221;28;20023;-77
2022/02/05 01:02:56;;;;;;;789.38;355.95;;;;;;;;;;4949872;28;20038;-76
2022/02/05 01:05:22;;;;;;;793.00;360.08;;;;;;;;;;4949562;28;20112;-76
2022/02/05 01:07:48;;;;;;;791.25;359.17;;;;;;;;;;4939507;28;20069;-76
2022/02/05 01:10:15;;;;;;;789.78;356.17;;;;;;;;;;4946045;28;20027;-77
2022/02/05 01:12:50;;;;;;;790.92;359.35;;;;;;;;;;4949330;28;20455;-76
2022/02/05 01:15:20;;;;;;;789.50;353.77;;;;;;;;;;4949649;28;20023;-77
2022/02/05 01:17:52;;;;;;;790.15;355.67;;;;;;;;;;4949548;28;20023;-77
2022/02/05 01:23:09;;;;;;;798.50;355.67;;;;;;;;;;4945732;28;20030;-76
2022/02/05 01:25:41;;;;;;;788.28;352.08;;;;;;;;;;4948067;28;20031;-77
2022/02/05 01:28:15;;;;;;;785.42;346.48;;;;;;;;;;4955496;28;20026;-77
2022/02/05 01:30:46;;;;;;;788.22;354.80;;;;;;;;;;4946203;28;20412;-76
2022/02/05 01:33:35;;;;;;;788.70;356.25;;;;;;;;;;4950604;28;20085;-77
2022/02/05 01:57:55;;;;;;;783.33;342.20;;;;;;;;;;4947924;28;20403;-77
2022/02/05 02:05:56;;;;;;;785.90;344.33;;;;;;;;;;4944942;28;20082;-76
2022/02/05 02:19:16;;;;;;;789.13;354.13;;;;;;;;;;4945370;28;20580;-77
2022/02/05 02:24:21;;;;;;;801.53;358.75;;;;;;;;;;4962062;28;20035;-77
2022/02/05 02:27:00;;;;;;;787.40;355.53;;;;;;;;;;4945621;28;20165;-77
2022/02/05 02:29:43;;;;;;;791.45;360.70;;;;;;;;;;4945618;28;20037;-77
2022/02/05 02:32:10;;;;;;;791.28;360.08;;;;;;;;;;4946558;28;20027;-77
2022/02/05 02:34:41;;;;;;;786.20;349.85;;;;;;;;;;4945053;28;20035;-77
2022/02/05 02:37:08;;;;;;;788.17;357.00;;;;;;;;;;4948009;28;20122;-76
2022/02/05 02:39:46;;;;;;;794.00;367.92;;;;;;;;;;4948940;28;20032;-77
2022/02/05 02:42:13;;;;;;;788.33;355.77;;;;;;;;;;4943994;28;20035;-77
2022/02/05 02:44:39;;;;;;;790.58;355.90;;;;;;;;;;4973403;28;20032;-76
2022/02/05 02:47:05;;;;;;;791.90;360.35;;;;;;;;;;4956761;28;20093;-77
2022/02/05 02:57:49;;;;;;;787.72;352.05;;;;;;;;;;4953154;28;20263;-76
2022/02/05 03:00:15;;;;;;;789.78;353.23;;;;;;;;;;4946698;28;20165;-77
2022/02/05 03:02:43;;;;;;;786.97;356.30;;;;;;;;;;4944232;28;20042;-77
2022/02/05 03:05:09;;;;;;;791.83;359.58;;;;;;;;;;4955433;28;20032;-77
2022/02/05 03:07:35;;;;;;;789.75;360.92;;;;;;;;;;4939622;28;20025;-76
2022/02/05 03:10:01;;;;;;;787.80;356.63;;;;;;;;;;4952101;28;20027;-76
2022/02/05 03:12:27;;;;;;;787.20;354.38;;;;;;;;;;4945554;28;20035;-76
2022/02/05 03:14:53;;;;;;;785.08;347.90;;;;;;;;;;4956312;28;20043;-76
2022/02/05 03:17:22;;;;;;;786.08;350.30;;;;;;;;;;4937870;29;20062;-76
2022/02/05 03:19:49;;;;;;;785.33;344.80;;;;;;;;;;4935283;28;20043;-77
2022/02/05 03:22:18;;;;;;;788.45;348.25;;;;;;;;;;4943085;28;20562;-77
2022/02/05 03:24:45;;;;;;;577.55;257.77;;;;;;;;;;4960722;28;20032;-77
2022/02/05 03:27:12;;;;;;;786.70;344.15;;;;;;;;;;4946772;28;20560;-76
2022/02/05 03:29:39;;;;;;;785.60;346.02;;;;;;;;;;4945931;28;20480;-77
2022/02/05 03:32:06;;;;;;;787.10;346.58;;;;;;;;;;4941162;28;20467;-77
2022/02/05 03:34:32;;;;;;;780.15;331.73;;;;;;;;;;4947135;28;20027;-77
2022/02/05 03:36:58;;;;;;;784.83;345.05;;;;;;;;;;4972453;28;20547;-77
2022/02/05 03:39:24;;;;;;;784.15;337.10;;;;;;;;;;4942196;28;20044;-76
2022/02/05 03:41:50;;;;;;;784.33;339.13;;;;;;;;;;4949062;28;20035;-77
2022/02/05 03:44:16;;;;;;;783.42;336.77;;;;;;;;;;4961399;28;20033;-77
2022/02/05 03:46:42;;;;;;;784.95;347.05;;;;;;;;;;4946823;28;20064;-76
2022/02/05 03:49:08;;;;;;;784.38;335.58;;;;;;;;;;4958256;28;20479;-76
2022/02/05 03:51:34;;;;;;;784.17;340.40;;;;;;;;;;4943899;28;20028;-76
2022/02/05 03:54:00;;;;;;;783.05;340.75;;;;;;;;;;4948861;28;20042;-77
2022/02/05 03:56:26;;;;;;;784.50;343.08;;;;;;;;;;4948410;28;20019;-76
2022/02/05 03:58:52;;;;;;;784.53;341.98;;;;;;;;;;4949178;28;20441;-76
2022/02/05 04:01:18;;;;;;;782.42;337.20;;;;;;;;;;4945454;28;20036;-76
2022/02/05 04:03:44;;;;;;;784.50;338.50;;;;;;;;;;4945987;28;20501;-77
2022/02/05 04:06:10;;;;;;;782.75;334.90;;;;;;;;;;4946588;28;20368;-76
2022/02/05 04:08:37;;;;;;;780.40;333.77;;;;;;;;;;4942889;28;20037;-77
2022/02/05 04:11:11;;;;;;;782.75;337.02;;;;;;;;;;4943746;28;20034;-77
2022/02/05 04:16:22;;;;;;;781.05;332.45;;;;;;;;;;4945983;28;20521;-77
2022/02/05 04:18:49;;;;;;;787.60;335.90;;;;;;;;;;4966657;28;20039;-77
2022/02/05 04:21:16;;;;;;;785.95;342.38;;;;;;;;;;4948298;28;20394;-77
2022/02/05 04:23:42;;;;;;;781.70;336.80;;;;;;;;;;4951272;28;20031;-77
2022/02/05 04:26:08;;;;;;;781.10;327.63;;;;;;;;;;4943991;28;20042;-77
2022/02/05 04:28:35;;;;;;;785.33;342.65;;;;;;;;;;4957969;28;20434;-77
2022/02/05 04:31:00;;;;;;;783.72;337.02;;;;;;;;;;4955924;28;20390;-77
2022/02/05 04:33:27;;;;;;;783.78;339.45;;;;;;;;;;4948443;28;20126;-77
2022/02/05 04:35:52;;;;;;;785.95;345.88;;;;;;;;;;4948412;28;20092;-77
2022/02/05 04:38:20;;;;;;;785.05;341.83;;;;;;;;;;4946656;28;20039;-77
2022/02/05 04:41:01;;;;;;;784.47;342.55;;;;;;;;;;4950503;28;20035;-76
2022/02/05 04:46:23;;;;;;;787.65;347.83;;;;;;;;;;4952129;28;20028;-77
2022/02/05 04:56:52;;;;;;;783.30;348.25;;;;;;;;;;4946695;28;20028;-77
2022/02/05 05:04:48;;;;;;;784.50;339.95;;;;;;;;;;4948838;28;20063;-77
2022/02/05 05:08:15;;;;;;;783.90;341.70;;;;;;;;;;4947783;28;20110;-77
2022/02/05 05:20:31;;;;;;;783.63;340.05;;;;;;;;;;4950341;28;20066;-77
2022/02/05 05:22:57;;;;;;;783.35;342.70;;;;;;;;;;4959351;28;20040;-77
2022/02/05 05:25:22;;;;;;;780.28;330.42;;;;;;;;;;4940072;29;20059;-77
2022/02/05 05:27:49;;;;;;;790.30;348.27;;;;;;;;;;4941603;28;20039;-77
2022/02/05 05:30:15;;;;;;;783.97;343.90;;;;;;;;;;4957111;28;20082;-77
2022/02/05 05:32:41;;;;;;;785.97;344.25;;;;;;;;;;4945121;28;20123;-77
2022/02/05 05:35:07;;;;;;;784.33;342.58;;;;;;;;;;4945937;28;21503;-77
2022/02/05 05:37:33;;;;;;;785.95;346.10;;;;;;;;;;4958885;28;20019;-77
2022/02/05 05:40:00;;;;;;;787.70;346.88;;;;;;;;;;4942471;28;20028;-77
2022/02/05 05:42:38;;;;;;;785.20;345.48;;;;;;;;;;4949386;28;20098;-77
2022/02/05 05:45:28;;;;;;;783.20;343.00;;;;;;;;;;4944853;28;20429;-77
2022/02/05 05:48:05;;;;;;;780.72;334.83;;;;;;;;;;4947785;28;20031;-77
2022/02/05 05:53:00;;;;;;;787.22;347.15;;;;;;;;;;4959566;28;20502;-77
2022/02/05 05:55:26;;;;;;;785.88;348.27;;;;;;;;;;4946171;28;20027;-77
2022/02/05 05:57:52;;;;;;;785.13;343.02;;;;;;;;;;4947404;28;20823;-77
2022/02/05 06:00:18;;;;;;;786.25;346.23;;;;;;;;;;4958728;28;20023;-77
2022/02/05 06:02:44;;;;;;;784.53;343.77;;;;;;;;;;4981534;28;20023;-77
2022/02/05 06:05:10;;;;;;;784.35;345.08;;;;;;;;;;4946146;29;20446;-77
2022/02/05 06:07:36;;;;;;;786.45;339.52;;;;;;;;;;4984245;28;20027;-77
2022/02/05 06:10:02;;;;;;;786.40;343.17;;;;;;;;;;4946398;29;20602;-77
2022/02/05 06:12:28;;;;;;;785.75;343.23;;;;;;;;;;4977925;28;20031;-77
2022/02/05 06:14:56;;;;;;;785.03;345.08;;;;;;;;;;4947720;29;20379;-76
2022/02/05 06:17:25;;;;;;;785.47;344.30;;;;;;;;;;4960670;28;20047;-78
2022/02/05 06:19:51;;;;;;;784.20;344.98;;;;;;;;;;4957038;28;20540;-77
2022/02/05 06:22:17;;;;;;;782.63;338.58;;;;;;;;;;4950259;28;20450;-77
2022/02/05 06:24:43;;;;;;;806.15;352.20;;;;;;;;;;4947144;29;20023;-77
2022/02/05 06:27:09;;;;;;;789.15;348.52;;;;;;;;;;4962990;28;20062;-77
2022/02/05 06:29:35;;;;;;;794.00;354.58;;;;;;;;;;4961701;28;20066;-77
2022/02/05 06:32:01;;;;;;;787.47;350.23;;;;;;;;;;4958787;28;20036;-77
2022/02/05 06:34:27;;;;;;;786.63;340.10;;;;;;;;;;4945166;28;20032;-77
2022/02/05 06:36:53;;;;;;;786.28;346.00;;;;;;;;;;4961296;28;20038;-76
2022/02/05 06:39:20;;;;;;;788.85;352.55;;;;;;;;;;4946728;28;20027;-77
2022/02/05 06:41:46;;;;;;;787.03;345.33;;;;;;;;;;4971664;28;20029;-77
2022/02/05 06:44:12;;;;;;;788.45;351.15;;;;;;;;;;4957158;28;20582;-77
2022/02/05 06:46:39;;;;;;;789.10;353.27;;;;;;;;;;4969975;28;20467;-77
2022/02/05 06:49:05;;;;;;;783.08;333.45;;;;;;;;;;4981294;28;20049;-77
2022/02/05 06:51:31;;;;;;;786.10;346.92;;;;;;;;;;4955819;28;20443;-78
2022/02/05 06:53:57;;;;;;;785.22;340.77;;;;;;;;;;4976798;28;20051;-77
2022/02/05 06:56:23;;;;;;;782.78;340.05;;;;;;;;;;4951713;28;20039;-77
2022/02/05 06:58:49;;;;;;;787.03;344.65;;;;;;;;;;4973084;28;20031;-77
2022/02/05 07:01:15;;;;;;;785.42;342.13;;;;;;;;;;4946874;28;20063;-77
2022/02/05 07:03:41;;;;;;;787.75;351.15;;;;;;;;;;4982548;28;20471;-77
2022/02/05 07:06:07;;;;;;;786.85;343.50;;;;;;;;;;4946786;28;20051;-77
2022/02/05 07:08:33;;;;;;;785.42;342.27;;;;;;;;;;4961409;28;20035;-77
2022/02/05 07:10:59;;;;;;;784.60;341.92;;;;;;;;;;4983758;28;20046;-77
2022/02/05 07:13:25;;;;;;;781.88;335.30;;;;;;;;;;4945918;29;20463;-77
2022/02/05 07:16:00;;;;;;;783.70;332.40;;;;;;;;;;4945719;29;20043;-76
2022/02/05 07:18:36;;;;;;;783.50;338.95;;;;;;;;;;4960440;28;20502;-77
2022/02/05 07:21:15;;;;;;;779.70;324.08;;;;;;;;;;4964234;28;20037;-77
2022/02/05 07:29:14;;;;;;;781.60;328.15;;;;;;;;;;4965387;28;20426;-76
2022/02/05 07:31:56;;;;;;;776.92;318.65;;;;;;;;;;4946922;29;20023;-76
2022/02/05 07:34:22;;;;;;;778.72;317.83;;;;;;;;;;4967407;28;20584;-77
2022/02/05 07:36:49;;;;;;;776.90;320.52;;;;;;;;;;4976093;28;20504;-76
2022/02/05 07:39:15;;;;;;;778.95;323.73;;;;;;;;;;4953503;28;20074;-76
2022/02/05 07:41:42;;;;;;;779.05;325.00;;;;;;;;;;4946625;28;20487;-77
2022/02/05 07:44:13;;;;;;;780.42;330.17;;;;;;;;;;4978873;28;20046;-77
2022/02/05 07:46:39;;;;;;;780.70;328.17;;;;;;;;;;4977869;28;20051;-77
2022/02/05 07:49:06;;;;;;;779.25;325.90;;;;;;;;;;4942622;28;20046;-77
2022/02/05 07:51:32;;;;;;;776.53;320.65;;;;;;;;;;4937014;28;20301;-76
2022/02/05 07:53:58;;;;;;;781.13;324.88;;;;;;;;;;4943295;28;20027;-76
2022/02/05 07:56:25;;;;;;;776.58;321.75;;;;;;;;;;4963439;28;20035;-76
2022/02/05 07:58:51;;;;;;;776.22;322.63;;;;;;;;;;4962140;28;20036;-76
2022/02/05 08:01:17;;;;;;;776.75;323.20;;;;;;;;;;4961483;28;20461;-77
2022/02/05 08:03:43;;;;;;;777.97;327.58;;;;;;;;;;4945377;28;20036;-76
2022/02/05 08:06:15;;;;;;;774.85;320.02;;;;;;;;;;4983336;28;20078;-76
2022/02/05 08:08:42;;;;;;;775.60;321.70;;;;;;;;;;4975427;28;20036;-76
2022/02/05 08:11:12;;;;;;;775.05;315.77;;;;;;;;;;4954264;28;20031;-76
2022/02/05 08:13:38;;;;;;;778.50;323.95;;;;;;;;;;4964993;28;20021;-75
2022/02/05 08:16:24;;;;;;;783.75;320.73;;;;;;;;;;4945453;28;20031;-76
2022/02/05 08:18:50;;;;;;;775.28;315.10;;;;;;;;;;4957488;28;20092;-77
2022/02/05 08:21:16;;;;;;;791.83;321.10;;;;;;;;;;4953329;28;20481;-77
2022/02/05 08:23:42;;;;;;;772.80;315.38;;;;;;;;;;4944668;28;20070;-76
2022/02/05 08:26:09;;;;;;;775.33;320.50;;;;;;;;;;4957106;28;20034;-77
2022/02/05 08:28:36;;;;;;;773.97;324.30;;;;;;;;;;4945748;28;20027;-77
2022/02/05 08:31:02;;;;;;;774.08;322.67;;;;;;;;;;4947222;28;20093;-77
2022/02/05 08:33:28;;;;;;;773.40;315.17;;;;;;;;;;4955016;28;20115;-76
2022/02/05 08:35:54;;;;;;;774.28;321.65;;;;;;;;;;4939071;28;20118;-76
2022/02/05 08:38:20;;;;;;;777.25;327.00;;;;;;;;;;4975036;28;20029;-78
2022/02/05 08:40:47;;;;;;;776.60;328.05;;;;;;;;;;4945474;28;20058;-77
2022/02/05 08:43:13;;;;;;;778.47;330.60;;;;;;;;;;4974990;28;20410;-77
2022/02/05 08:45:40;;;;;;;774.78;325.52;;;;;;;;;;4949938;28;20038;-77
2022/02/05 08:48:06;;;;;;;777.33;330.30;;;;;;;;;;4955674;28;20039;-77
2022/02/05 08:50:32;;;;;;;778.33;330.17;;;;;;;;;;4962325;28;20043;-77
2022/02/05 08:52:58;;;;;;;781.00;338.27;;;;;;;;;;4956038;28;20137;-77
2022/02/05 08:55:28;;;;;;;782.13;340.92;;;;;;;;;;4953314;28;20020;-77
2022/02/05 08:57:55;;;;;;;782.33;338.38;;;;;;;;;;4940801;29;20110;-77
2022/02/05 09:00:24;;;;;;;781.35;345.48;;;;;;;;;;4948240;28;20522;-77
2022/02/05 09:08:29;;;;;;;776.65;331.38;;;;;;;;;;4938661;28;20034;-77
2022/02/05 09:11:05;;;;;;;785.17;348.02;;;;;;;;;;4939503;28;20034;-77
2022/02/05 09:16:04;;;;;;;788.25;366.58;;;;;;;;;;4967629;28;20036;-77
2022/02/05 09:18:30;;;;;;;790.80;370.92;;;;;;;;;;4945456;29;20130;-77
2022/02/05 09:20:56;;;;;;;790.72;368.42;;;;;;;;;;4979066;28;20051;-77
2022/02/05 09:23:23;;;;;;;794.60;380.65;;;;;;;;;;4959179;28;20038;-77
2022/02/05 09:25:49;;;;;;;791.63;375.02;;;;;;;;;;4927190;28;20487;-77
2022/02/05 09:28:15;;;;;;;792.03;371.83;;;;;;;;;;4958734;28;20023;-77
2022/02/05 09:30:49;;;;;;;790.13;369.92;;;;;;;;;;4962659;28;20063;-77
2022/02/05 09:33:15;;;;;;;791.13;370.73;;;;;;;;;;4957607;28;20114;-77
2022/02/05 09:35:41;;;;;;;790.53;371.40;;;;;;;;;;4980696;28;20047;-76
2022/02/05 09:38:07;;;;;;;792.53;377.83;;;;;;;;;;4967010;28;20092;-77
2022/02/05 09:40:33;;;;;;;795.47;382.40;;;;;;;;;;4959969;28;20031;-76
2022/02/05 09:42:59;;;;;;;795.05;385.25;;;;;;;;;;4969215;28;20062;-76
2022/02/05 09:45:26;;;;;;;797.15;392.02;;;;;;;;;;4971135;28;20088;-76
2022/02/05 09:47:52;;;;;;;794.65;389.17;;;;;;;;;;4950323;28;20114;-76
2022/02/05 09:50:21;;;;;;;793.90;386.95;;;;;;;;;;4966474;28;20536;-77
2022/02/05 09:52:52;;;;;;;797.83;390.42;;;;;;;;;;4947344;29;20035;-77
2022/02/05 09:55:18;;;;;;;795.95;385.67;;;;;;;;;;4982204;28;20039;-77
2022/02/05 09:57:44;;;;;;;797.53;390.40;;;;;;;;;;4966169;28;20407;-77
2022/02/05 10:00:17;;;;;;;798.40;399.48;;;;;;;;;;4957377;28;20031;-75
2022/02/05 10:02:43;;;;;;;798.92;397.52;;;;;;;;;;4980536;28;20031;-77
2022/02/05 10:05:15;;;;;;;805.67;414.70;;;;;;;;;;4973364;28;20051;-78
2022/02/05 10:07:52;;;;;;;807.20;421.50;;;;;;;;;;4944028;29;20078;-77
2022/02/05 10:10:19;;;;;;;806.13;425.33;;;;;;;;;;4954688;28;20035;-77
2022/02/05 10:12:45;;;;;;;809.58;431.88;;;;;;;;;;4959867;28;20574;-77
2022/02/05 10:15:11;;;;;;;812.00;438.73;;;;;;;;;;4972819;28;20146;-78
2022/02/05 10:17:41;;;;;;;815.10;448.55;;;;;;;;;;4949117;28;20024;-78
2022/02/05 10:20:07;;;;;;;812.45;437.60;;;;;;;;;;4945688;28;20035;-78
2022/02/05 10:22:38;;;;;;;820.58;455.67;;;;;;;;;;4946963;28;20055;-77
2022/02/05 10:25:24;;;;;;;820.17;458.27;;;;;;;;;;4956078;28;20066;-77
2022/02/05 10:27:50;;;;;;;816.05;456.48;;;;;;;;;;4989692;28;20394;-77
2022/02/05 10:30:19;;;;;;;816.35;452.98;;;;;;;;;;4964909;28;20016;-77
2022/02/05 10:32:51;;;;;;;814.63;445.98;;;;;;;;;;4981606;28;20521;-76
2022/02/05 10:35:39;;;;;;;810.40;430.20;;;;;;;;;;4961821;28;20370;-77
2022/02/05 10:43:09;;;;;;;813.53;443.15;;;;;;;;;;4976091;28;20025;-78
2022/02/05 10:45:48;;;;;;;811.88;442.48;;;;;;;;;;4950084;28;20019;-78
2022/02/05 10:48:21;;;;;;;812.80;442.67;;;;;;;;;;4971585;28;20722;-78
2022/02/05 10:50:48;;;;;;;812.45;439.95;;;;;;;;;;4972732;28;20353;-78
2022/02/05 10:53:34;;;;;;;810.40;435.55;;;;;;;;;;4943408;28;20056;-78
2022/02/05 10:56:24;;;;;;;809.13;433.52;;;;;;;;;;4951525;28;20027;-78
2022/02/05 11:07:14;;;;;;;803.88;416.10;;;;;;;;;;4942992;28;20031;-78
2022/02/05 11:09:43;;;;;;;805.33;420.38;;;;;;;;;;4945739;29;20537;-77
2022/02/05 11:15:12;;;;;;;804.03;415.45;;;;;;;;;;4945691;29;20050;-77
2022/02/05 11:20:24;;;;;;;802.92;411.60;;;;;;;;;;4946068;29;20118;-78
2022/02/05 11:22:51;;;;;;;806.63;416.17;;;;;;;;;;4971535;28;20115;-79
2022/02/05 11:25:18;;;;;;;803.78;414.52;;;;;;;;;;4944387;28;20077;-77
2022/02/05 11:27:45;;;;;;;805.55;419.20;;;;;;;;;;4987249;28;20438;-78
2022/02/05 11:30:31;;;;;;;805.15;422.17;;;;;;;;;;4977657;28;20031;-78
2022/02/05 11:33:05;;;;;;;804.85;417.10;;;;;;;;;;4946905;28;20049;-77
2022/02/05 11:35:40;;;;;;;804.42;415.85;;;;;;;;;;4946502;28;20039;-77
2022/02/05 11:38:09;;;;;;;803.83;419.77;;;;;;;;;;4955103;28;20045;-76
2022/02/05 11:40:48;;;;;;;805.45;418.95;;;;;;;;;;4976865;28;20496;-77
2022/02/05 11:43:18;;;;;;;594.03;303.70;;;;;;;;;;4973920;28;20546;-76
2022/02/05 11:45:45;;;;;;;806.58;422.88;;;;;;;;;;4945165;28;20035;-76
2022/02/05 11:48:40;;;;;;;808.75;431.98;;;;;;;;;;4951158;28;20462;-76
2022/02/05 11:51:13;;;;;;;806.55;425.50;;;;;;;;;;4954023;28;20028;-77
2022/02/05 11:54:04;;;;;;;811.05;436.63;;;;;;;;;;4950303;28;20697;-77
2022/02/05 11:56:48;;;;;;;808.80;427.60;;;;;;;;;;4981849;28;20031;-77
2022/02/05 11:59:14;;;;;;;806.05;423.98;;;;;;;;;;4944832;29;20114;-76
2022/02/05 12:01:40;;;;;;;806.53;426.60;;;;;;;;;;4978541;28;20093;-77
2022/02/05 12:04:21;;;;;;;811.72;439.15;;;;;;;;;;4946480;29;20027;-77
2022/02/05 12:06:58;;;;;;;806.67;420.55;;;;;;;;;;4948346;28;20032;-75
2022/02/05 12:09:41;;;;;;;805.20;417.50;;;;;;;;;;4948616;29;20038;-76
2022/02/05 12:12:35;;;;;;;806.40;415.35;;;;;;;;;;4959336;28;20058;-79
2022/02/05 12:15:17;;;;;;;808.38;423.30;;;;;;;;;;4994424;28;20031;-76
2022/02/05 12:20:26;;;;;;;811.67;432.98;;;;;;;;;;4964648;28;20047;-77
2022/02/05 12:23:03;;;;;;;806.83;421.30;;;;;;;;;;4944391;29;20096;-77
2022/02/05 12:25:29;;;;;;;811.47;435.20;;;;;;;;;;4943241;28;20214;-77
2022/02/05 12:27:55;;;;;;;807.30;430.48;;;;;;;;;;4945499;29;20360;-77
2022/02/05 12:30:27;;;;;;;807.42;425.75;;;;;;;;;;4968429;28;20066;-77
2022/02/05 12:32:56;;;;;;;804.78;419.05;;;;;;;;;;4964328;28;20039;-77
2022/02/05 12:35:22;;;;;;;801.63;409.42;;;;;;;;;;4983865;28;20384;-76
2022/02/05 12:37:49;;;;;;;804.60;416.88;;;;;;;;;;4962588;28;20042;-77
2022/02/05 12:40:16;;;;;;;807.17;421.52;;;;;;;;;;5005282;28;20101;-76
2022/02/05 12:42:52;;;;;;;804.85;415.42;;;;;;;;;;4949119;29;20046;-76
2022/02/05 12:45:24;;;;;;;805.83;418.95;;;;;;;;;;4962995;28;20070;-76
2022/02/05 12:47:50;;;;;;;808.83;426.48;;;;;;;;;;4978000;28;20025;-77
2022/02/05 12:50:17;;;;;;;809.45;431.08;;;;;;;;;;4952132;28;20603;-77
2022/02/05 12:52:51;;;;;;;815.85;435.10;;;;;;;;;;4981594;28;20042;-77
2022/02/05 12:55:26;;;;;;;813.08;442.17;;;;;;;;;;4976961;28;20503;-77
2022/02/05 12:58:02;;;;;;;805.63;427.95;;;;;;;;;;4958477;28;20706;-77
2022/02/05 13:00:28;;;;;;;810.67;433.63;;;;;;;;;;4943119;28;20054;-76
2022/02/05 13:02:54;;;;;;;809.72;435.20;;;;;;;;;;4966677;28;20031;-76
2022/02/05 13:05:33;;;;;;;809.03;435.08;;;;;;;;;;4990655;28;20512;-76
2022/02/05 13:07:59;;;;;;;809.63;434.13;;;;;;;;;;4955883;28;20384;-76
2022/02/05 13:10:26;;;;;;;812.45;435.92;;;;;;;;;;4948798;28;20032;-76
2022/02/05 13:12:56;;;;;;;805.70;425.90;;;;;;;;;;4962662;28;20085;-76
2022/02/05 13:15:28;;;;;;;808.63;432.73;;;;;;;;;;4956103;28;20035;-77
2022/02/05 13:26:04;;;;;;;811.63;441.92;;;;;;;;;;4988037;28;20132;-77
2022/02/05 13:34:04;;;;;;;810.20;432.70;;;;;;;;;;4981645;28;20042;-76
2022/02/05 13:42:07;;;;;;;808.58;430.48;;;;;;;;;;4952237;28;20101;-77
2022/02/05 13:44:55;;;;;;;807.42;423.98;;;;;;;;;;4954946;28;20495;-76
2022/02/05 13:47:31;;;;;;;806.97;425.83;;;;;;;;;;4968458;28;20035;-77
2022/02/05 13:50:02;;;;;;;807.95;427.00;;;;;;;;;;4957252;28;20031;-76
2022/02/05 13:52:36;;;;;;;803.97;420.70;;;;;;;;;;4946505;29;20031;-77
2022/02/05 13:55:16;;;;;;;807.47;428.15;;;;;;;;;;4962401;28;20063;-77
2022/02/05 13:57:52;;;;;;;807.50;425.63;;;;;;;;;;4948156;28;20081;-76
2022/02/05 14:00:18;;;;;;;803.53;415.75;;;;;;;;;;4980346;28;20023;-74
2022/02/05 14:02:45;;;;;;;805.42;419.90;;;;;;;;;;4946568;28;20035;-76
2022/02/05 14:05:15;;;;;;;808.50;432.20;;;;;;;;;;4980665;28;20049;-76
2022/02/05 14:07:45;;;;;;;807.35;423.90;;;;;;;;;;4950825;28;20023;-76
2022/02/05 14:10:18;;;;;;;802.45;407.73;;;;;;;;;;4947793;29;20055;-77
2022/02/05 14:12:53;;;;;;;801.63;415.60;;;;;;;;;;4961092;28;20039;-77
2022/02/05 14:15:20;;;;;;;804.60;417.73;;;;;;;;;;4946975;28;20033;-76
2022/02/05 14:17:47;;;;;;;803.38;417.60;;;;;;;;;;4948502;28;20023;-77
2022/02/05 14:20:14;;;;;;;805.33;416.92;;;;;;;;;;4970905;28;20028;-77
2022/02/05 14:22:43;;;;;;;801.75;407.73;;;;;;;;;;4963602;28;20024;-77
2022/02/05 14:25:23;;;;;;;805.05;419.50;;;;;;;;;;4947270;29;20023;-76
2022/02/05 14:28:16;;;;;;;804.60;416.80;;;;;;;;;;4947499;29;20034;-76
2022/02/05 14:30:55;;;;;;;800.88;403.55;;;;;;;;;;4983276;28;20419;-77
2022/02/05 14:33:23;;;;;;;801.45;405.45;;;;;;;;;;4980014;28;20031;-78
2022/02/05 14:41:03;;;;;;;799.60;403.08;;;;;;;;;;4946808;28;20541;-77
2022/02/05 14:43:29;;;;;;;800.10;406.73;;;;;;;;;;4954304;28;20049;-77
2022/02/05 14:45:55;;;;;;;803.92;413.08;;;;;;;;;;4943869;29;20053;-76
2022/02/05 14:48:22;;;;;;;798.28;398.50;;;;;;;;;;4942302;28;20031;-76
2022/02/05 14:50:49;;;;;;;812.95;405.05;;;;;;;;;;4954515;28;20117;-78
2022/02/05 14:53:15;;;;;;;798.55;397.15;;;;;;;;;;4953189;28;20042;-75
2022/02/05 14:55:42;;;;;;;800.00;403.15;;;;;;;;;;4948502;28;20562;-77
2022/02/05 14:58:08;;;;;;;800.60;406.33;;;;;;;;;;4943522;28;20038;-74
2022/02/05 15:00:33;;;;;;;798.33;402.23;;;;;;;;;;4945069;28;20392;-76
2022/02/05 15:02:59;;;;;;;803.95;414.63;;;;;;;;;;4974258;28;20161;-77
2022/02/05 15:05:25;;;;;;;802.42;407.50;;;;;;;;;;4977692;28;20371;-76
2022/02/05 15:07:52;;;;;;;801.05;405.60;;;;;;;;;;4967557;28;20430;-77
2022/02/05 15:10:19;;;;;;;803.03;412.20;;;;;;;;;;4974547;28;20028;-77
2022/02/05 15:12:45;;;;;;;802.05;410.42;;;;;;;;;;4946712;29;20038;-78
2022/02/05 15:15:18;;;;;;;804.15;414.02;;;;;;;;;;4962150;28;20112;-76
2022/02/05 15:17:45;;;;;;;802.67;413.27;;;;;;;;;;4963079;28;20027;-76
2022/02/05 15:20:12;;;;;;;801.20;411.40;;;;;;;;;;4972945;28;20033;-76
2022/02/05 15:22:38;;;;;;;801.42;410.83;;;;;;;;;;4947553;29;20126;-76
2022/02/05 15:25:05;;;;;;;801.10;408.63;;;;;;;;;;4982677;28;20060;-76
2022/02/05 15:27:31;;;;;;;803.45;411.25;;;;;;;;;;4962307;28;20433;-75
2022/02/05 15:29:57;;;;;;;801.40;411.92;;;;;;;;;;4949549;28;20029;-77
2022/02/05 15:32:23;;;;;;;800.35;405.27;;;;;;;;;;4955231;28;20679;-76
2022/02/05 15:34:49;;;;;;;798.42;398.20;;;;;;;;;;4958847;28;20084;-76
2022/02/05 15:37:22;;;;;;;800.65;407.02;;;;;;;;;;4943145;28;20404;-77
2022/02/05 15:39:55;;;;;;;803.00;408.65;;;;;;;;;;4954182;28;20199;-76
2022/02/05 15:45:06;;;;;;;797.05;399.05;;;;;;;;;;4949009;28;20038;-77
2022/02/05 15:47:32;;;;;;;802.17;407.65;;;;;;;;;;4956994;28;20393;-77
2022/02/05 15:49:58;;;;;;;801.60;408.77;;;;;;;;;;4944741;28;20256;-76
2022/02/05 15:52:24;;;;;;;802.47;409.42;;;;;;;;;;4968695;28;20502;-76
2022/02/05 15:54:52;;;;;;;800.13;408.60;;;;;;;;;;4954518;28;20340;-75
2022/02/05 15:57:32;;;;;;;802.08;406.80;;;;;;;;;;4985917;28;20132;-77
2022/02/05 16:00:09;;;;;;;803.05;408.23;;;;;;;;;;4957680;28;20032;-76
2022/02/05 16:02:35;;;;;;;799.85;409.05;;;;;;;;;;4966648;28;20394;-77
2022/02/05 16:05:01;;;;;;;802.03;411.20;;;;;;;;;;4981044;28;20068;-76
2022/02/05 16:07:27;;;;;;;802.28;407.30;;;;;;;;;;4947751;29;20081;-76
2022/02/05 16:09:53;;;;;;;801.83;408.83;;;;;;;;;;4982703;28;20039;-77
2022/02/05 16:12:19;;;;;;;807.42;417.63;;;;;;;;;;4975454;28;20380;-77
2022/02/05 16:14:45;;;;;;;801.50;406.75;;;;;;;;;;4946636;28;20038;-77
2022/02/05 16:17:11;;;;;;;802.75;412.30;;;;;;;;;;4975695;28;20617;-77
2022/02/05 16:19:38;;;;;;;802.63;409.83;;;;;;;;;;4983536;28;20138;-76
2022/02/05 16:22:04;;;;;;;803.78;414.35;;;;;;;;;;4952538;28;20056;-76
2022/02/05 16:24:30;;;;;;;800.25;406.67;;;;;;;;;;4970755;28;20577;-76
2022/02/05 16:26:56;;;;;;;802.55;407.52;;;;;;;;;;4961151;28;20438;-76
2022/02/05 16:29:26;;;;;;;798.70;406.27;;;;;;;;;;4998761;28;20040;-77
2022/02/05 16:31:53;;;;;;;801.17;410.60;;;;;;;;;;4961391;28;20604;-77
2022/02/05 16:34:20;;;;;;;800.88;406.92;;;;;;;;;;4946924;29;20032;-76
2022/02/05 16:36:46;;;;;;;801.92;410.98;;;;;;;;;;4968783;28;20461;-78
2022/02/05 16:39:14;;;;;;;803.10;412.75;;;;;;;;;;4985699;28;20035;-76
2022/02/05 16:41:40;;;;;;;801.38;406.80;;;;;;;;;;4973630;28;20097;-76
2022/02/05 16:44:06;;;;;;;805.50;415.25;;;;;;;;;;4950196;28;20105;-78
2022/02/05 16:46:38;;;;;;;801.15;412.52;;;;;;;;;;4961958;28;20045;-78
2022/02/05 16:49:04;;;;;;;803.78;419.10;;;;;;;;;;4945991;29;20538;-78
2022/02/05 16:51:32;;;;;;;801.00;409.45;;;;;;;;;;4949283;29;20248;-76
2022/02/05 16:53:58;;;;;;;800.90;411.15;;;;;;;;;;4949088;29;20031;-77
2022/02/05 16:56:29;;;;;;;802.92;414.35;;;;;;;;;;4949077;29;20081;-78
2022/02/05 16:58:54;;;;;;;802.28;413.10;;;;;;;;;;4948905;29;20035;-78
2022/02/05 17:01:22;;;;;;;800.30;405.77;;;;;;;;;;4950278;28;20035;-75